Friday, July 25, 2014
22:10 UTC
  |  Log In   |  Register Free
Airport Search:

La Porte Municipal Airport
(T41)

La Porte Municipal Airport Diagram
No Airport Diagram Available

FAA data valid effective July 24, 2014 until September 18, 2014 (unless otherwise noted).

 
 
 
 
 
 
 
 
 
 
 
 
 
 

Current Aviation Weather for La Porte Municipal Airport (T41)

The most recent METAR observation for KEFD was updated at: 2050 UTC
METAR Summary (Translated METAR)
KEFD
252050Z 21005KT 10SM SCT035 BKN250 31/22 A2999
KHOU
(6.7 nm NW from KEFD)
252053Z 20005KT 10SM SCT045 SCT240 34/22 A2996 RMK AO2 SLP150 CB DSNT S T03390217 58018
TAF Summary (Translated TAF)
KEFD
2520/2702 17009KT 9999 FEW030 QNH2994INS TEMPO 2520/2523 17010G15KT 8000 -TSRA BKN035CB TX33/2521Z TN24/2612Z
KHOU
(6.7 nm NW from KEFD)
252121Z 2521/2618 15005KT P6SM VCSH SCT045 SCT250 FM260100 VRB04KT P6SM SCT250 FM261500 21007KT P6SM SCT030
  Airport Weather Conditions for T41

Current weather conditions are
not available for T41


The nearest NOAA weather station
is at EFD, (6.2 nm SW from T41)
  
 Current Weather at EFD
88° F
Mostly Cloudy
Southwest winds at 5.8 mph
EFD NOAA Radar

Pressure: 29.99 in
Humidity: 59%
Wind: Southwest at 5.8 MPH (5 KT)
Dew Point: 71.6°F
Visibility: 10.00 mi


Airport Weather Forecast for T41

Translated METAR and TAF for KEFD
Translated METAR for KEFD (2203 UTC 25 July 2014)
found at http://aviationweather.gov/adds/metars/
 
METAR text: KEFD 252150Z 12010KT 10SM SCT035 SCT250 31/22 A2997
Conditions at: KEFD (HOUSTON/ELLINGTO, TX, US) observed 2150 UTC 25 July 2014
Temperature: 31.0°C (88°F)
Dewpoint: 22.0°C (72°F) [RH = 59%]
Pressure (altimeter): 29.97 inches Hg (1015.0 mb)
Winds: from the ESE (120 degrees) at 12 MPH (10 knots; 5.2 m/s)
Visibility: 10 or more miles (16+ km)
Ceiling: at least 12,000 feet AGL
Clouds: scattered clouds at 3500 feet AGL
scattered clouds at 25000 feet AGL
Weather: no significant weather observed at this time
Translated TAF for KEFD
Forecast for: KEFD (HOUSTON/ELLINGTO, TX, US)
TAF Text: TAF KEFD 2520/2702 17009KT 9999 FEW030 QNH2994INS
Forecast period: 2000 UTC 25 July 2014 to 0200 UTC 27 July 2014
Forecast type: FROM: standard forecast or significant change
Winds: from the S (170 degrees) at 10 MPH (9 knots; 4.7 m/s)
Visibility: 6 or more miles (10+ km)
Clouds: few clouds at 3000 feet AGL
Weather: no significant weather forecast for this period
TAF Text: TEMPO 2520/2523 17010G15KT 8000 -TSRA BKN035CB TX33/2521Z TN24/2612Z
Forecast period: 2000 to 2300 UTC 25 July 2014
Forecast type: TEMPORARY: The following changes expected for less than half the time period
Winds: from the S (170 degrees) at 12 MPH (10 knots; 5.2 m/s)
gusting to 17 MPH (15 knots; 7.8 m/s)
Visibility: 5 miles (8 km)
Ceiling: 3500 feet AGL
Clouds: broken clouds at 3500 feet AGL
Weather: -TSRA  (light rain associated with thunderstorm(s))

Find All Airport Services Find A Hotel Find A Rental Car Find A Golf Course Find A Restaurant $100 Hamburger



FBO's on the Field
FBO Company Facility Photos Services Transportation Aviation Fuel Prices: Prices include tax
Catering Weather Repair Courtesy Rental Type 100LL JetA JetA+ MOGAS 8087
 
Harvey & Rihn Aviation

This FBO has not yet been rated
FS:Independent
Last Updated: Jul-16
Login to update fuel prices
SS:
Contact Harvey & Rihn AviationMore FBO Information
 
Tri-Star Aviation

This FBO has not yet been rated
FS:Avfuel
Last Updated: Jul-17
Login to update fuel prices
SS:
Contact Tri-Star AviationMore FBO Information
 
Add another FBO Facility Photos Catering Weather Repair Courtesy Rental Type 100LL JetA JetA+ MOGAS 8087
Services Transportation Aviation Fuel Prices: Prices include tax


GlobalAir.com Airport Resource Center model-print
model-print
model-print
model-print